sensor_id;sensor_type;location;lat;lon;timestamp;P1;durP1;ratioP1;P2;durP2;ratioP2
1975;SDS011;988;48.016;7.800;2023-04-03T00:02:10;11.33;;;10.73;;
1975;SDS011;988;48.016;7.800;2023-04-03T00:04:35;11.83;;;11.13;;
1975;SDS011;988;48.016;7.800;2023-04-03T00:07:01;11.23;;;10.63;;
1975;SDS011;988;48.016;7.800;2023-04-03T00:09:26;11.50;;;10.90;;
1975;SDS011;988;48.016;7.800;2023-04-03T00:11:52;12.40;;;11.50;;
1975;SDS011;988;48.016;7.800;2023-04-03T00:14:18;13.00;;;12.30;;
1975;SDS011;988;48.016;7.800;2023-04-03T00:16:43;12.97;;;12.13;;
1975;SDS011;988;48.016;7.800;2023-04-03T00:19:09;12.40;;;11.67;;
1975;SDS011;988;48.016;7.800;2023-04-03T00:21:36;11.70;;;11.07;;
1975;SDS011;988;48.016;7.800;2023-04-03T00:24:02;12.83;;;12.03;;
1975;SDS011;988;48.016;7.800;2023-04-03T00:26:28;12.33;;;11.70;;
1975;SDS011;988;48.016;7.800;2023-04-03T00:28:53;13.43;;;12.53;;
1975;SDS011;988;48.016;7.800;2023-04-03T00:31:19;12.97;;;12.30;;
1975;SDS011;988;48.016;7.800;2023-04-03T00:33:45;12.70;;;11.90;;
1975;SDS011;988;48.016;7.800;2023-04-03T00:36:11;11.60;;;10.93;;
1975;SDS011;988;48.016;7.800;2023-04-03T00:38:38;13.15;;;11.98;;
1975;SDS011;988;48.016;7.800;2023-04-03T00:41:04;12.70;;;12.03;;
1975;SDS011;988;48.016;7.800;2023-04-03T00:43:30;11.80;;;11.13;;
1975;SDS011;988;48.016;7.800;2023-04-03T00:45:56;11.30;;;10.53;;
1975;SDS011;988;48.016;7.800;2023-04-03T00:48:28;11.43;;;10.52;;
1975;SDS011;988;48.016;7.800;2023-04-03T00:50:57;11.38;;;10.77;;
1975;SDS011;988;48.016;7.800;2023-04-03T00:53:26;12.05;;;11.25;;
1975;SDS011;988;48.016;7.800;2023-04-03T00:55:55;11.43;;;10.73;;
1975;SDS011;988;48.016;7.800;2023-04-03T00:58:22;11.05;;;10.45;;
1975;SDS011;988;48.016;7.800;2023-04-03T01:00:58;10.80;;;10.20;;
1975;SDS011;988;48.016;7.800;2023-04-03T01:03:25;12.82;;;12.13;;
1975;SDS011;988;48.016;7.800;2023-04-03T01:05:51;11.93;;;11.27;;
1975;SDS011;988;48.016;7.800;2023-04-03T01:08:16;11.77;;;10.83;;
1975;SDS011;988;48.016;7.800;2023-04-03T01:10:42;11.40;;;10.60;;
1975;SDS011;988;48.016;7.800;2023-04-03T01:13:18;12.20;;;11.40;;
1975;SDS011;988;48.016;7.800;2023-04-03T01:15:49;13.15;;;12.30;;
1975;SDS011;988;48.016;7.800;2023-04-03T01:18:15;11.40;;;10.63;;
1975;SDS011;988;48.016;7.800;2023-04-03T01:26:17;11.18;;;10.57;;
1975;SDS011;988;48.016;7.800;2023-04-03T01:28:43;13.10;;;12.30;;
1975;SDS011;988;48.016;7.800;2023-04-03T01:33:54;11.27;;;10.40;;
1975;SDS011;988;48.016;7.800;2023-04-03T01:36:25;10.90;;;10.20;;
1975;SDS011;988;48.016;7.800;2023-04-03T01:38:53;10.48;;;9.88;;
1975;SDS011;988;48.016;7.800;2023-04-03T01:41:20;10.25;;;9.65;;
1975;SDS011;988;48.016;7.800;2023-04-03T01:43:46;11.40;;;10.70;;
1975;SDS011;988;48.016;7.800;2023-04-03T01:46:12;10.73;;;10.02;;
1975;SDS011;988;48.016;7.800;2023-04-03T01:48:38;11.67;;;10.87;;
1975;SDS011;988;48.016;7.800;2023-04-03T01:51:04;11.00;;;10.40;;
1975;SDS011;988;48.016;7.800;2023-04-03T01:53:29;11.27;;;10.57;;
1975;SDS011;988;48.016;7.800;2023-04-03T01:55:55;10.40;;;9.80;;
1975;SDS011;988;48.016;7.800;2023-04-03T01:58:20;10.47;;;9.87;;
1975;SDS011;988;48.016;7.800;2023-04-03T02:00:46;12.43;;;11.73;;
1975;SDS011;988;48.016;7.800;2023-04-03T02:03:12;12.20;;;11.50;;
1975;SDS011;988;48.016;7.800;2023-04-03T02:05:37;12.23;;;11.43;;
1975;SDS011;988;48.016;7.800;2023-04-03T02:08:03;12.53;;;11.83;;
1975;SDS011;988;48.016;7.800;2023-04-03T02:10:29;11.83;;;11.17;;
1975;SDS011;988;48.016;7.800;2023-04-03T02:12:55;12.60;;;11.90;;
1975;SDS011;988;48.016;7.800;2023-04-03T02:15:20;12.63;;;11.83;;
1975;SDS011;988;48.016;7.800;2023-04-03T02:17:46;14.03;;;13.27;;
1975;SDS011;988;48.016;7.800;2023-04-03T02:20:11;13.30;;;12.60;;
1975;SDS011;988;48.016;7.800;2023-04-03T02:22:37;13.17;;;12.47;;
1975;SDS011;988;48.016;7.800;2023-04-03T02:25:03;13.63;;;12.80;;
1975;SDS011;988;48.016;7.800;2023-04-03T02:27:29;13.23;;;12.50;;
1975;SDS011;988;48.016;7.800;2023-04-03T02:29:54;13.10;;;12.30;;
1975;SDS011;988;48.016;7.800;2023-04-03T02:32:20;13.47;;;12.67;;
1975;SDS011;988;48.016;7.800;2023-04-03T02:34:46;12.47;;;11.77;;
1975;SDS011;988;48.016;7.800;2023-04-03T02:37:11;12.53;;;11.73;;
1975;SDS011;988;48.016;7.800;2023-04-03T02:39:37;13.20;;;12.40;;
1975;SDS011;988;48.016;7.800;2023-04-03T02:42:02;12.40;;;11.70;;
1975;SDS011;988;48.016;7.800;2023-04-03T02:44:28;12.57;;;11.87;;
1975;SDS011;988;48.016;7.800;2023-04-03T02:46:54;11.57;;;10.97;;
1975;SDS011;988;48.016;7.800;2023-04-03T02:49:19;13.87;;;12.93;;
1975;SDS011;988;48.016;7.800;2023-04-03T02:51:45;13.07;;;12.17;;
1975;SDS011;988;48.016;7.800;2023-04-03T02:54:11;13.87;;;12.97;;
1975;SDS011;988;48.016;7.800;2023-04-03T02:56:36;13.57;;;12.77;;
1975;SDS011;988;48.016;7.800;2023-04-03T02:59:02;14.10;;;13.30;;
1975;SDS011;988;48.016;7.800;2023-04-03T03:01:28;12.77;;;12.07;;
1975;SDS011;988;48.016;7.800;2023-04-03T03:03:56;14.07;;;13.27;;
1975;SDS011;988;48.016;7.800;2023-04-03T03:06:22;14.20;;;13.40;;
1975;SDS011;988;48.016;7.800;2023-04-03T03:08:48;13.98;;;13.18;;
1975;SDS011;988;48.016;7.800;2023-04-03T03:11:14;13.50;;;12.57;;
1975;SDS011;988;48.016;7.800;2023-04-03T03:13:40;13.77;;;13.07;;
1975;SDS011;988;48.016;7.800;2023-04-03T03:16:06;13.33;;;12.53;;
1975;SDS011;988;48.016;7.800;2023-04-03T03:18:32;13.57;;;12.77;;
1975;SDS011;988;48.016;7.800;2023-04-03T03:20:58;15.73;;;14.53;;
1975;SDS011;988;48.016;7.800;2023-04-03T03:23:26;13.32;;;12.52;;
1975;SDS011;988;48.016;7.800;2023-04-03T03:26:01;13.57;;;12.48;;
1975;SDS011;988;48.016;7.800;2023-04-03T03:28:28;13.88;;;12.98;;
1975;SDS011;988;48.016;7.800;2023-04-03T03:30:54;12.73;;;12.03;;
1975;SDS011;988;48.016;7.800;2023-04-03T03:33:20;12.23;;;11.53;;
1975;SDS011;988;48.016;7.800;2023-04-03T03:35:45;11.97;;;11.37;;
1975;SDS011;988;48.016;7.800;2023-04-03T03:38:11;12.20;;;11.50;;
1975;SDS011;988;48.016;7.800;2023-04-03T03:40:37;13.27;;;12.37;;
1975;SDS011;988;48.016;7.800;2023-04-03T03:43:02;14.20;;;13.20;;
1975;SDS011;988;48.016;7.800;2023-04-03T03:45:28;12.80;;;11.97;;
1975;SDS011;988;48.016;7.800;2023-04-03T03:47:54;11.93;;;11.13;;
1975;SDS011;988;48.016;7.800;2023-04-03T03:50:19;13.63;;;12.53;;
1975;SDS011;988;48.016;7.800;2023-04-03T03:52:45;13.60;;;12.80;;
1975;SDS011;988;48.016;7.800;2023-04-03T03:55:11;12.30;;;11.70;;
1975;SDS011;988;48.016;7.800;2023-04-03T03:57:37;13.90;;;13.00;;
1975;SDS011;988;48.016;7.800;2023-04-03T04:00:03;12.20;;;11.60;;
1975;SDS011;988;48.016;7.800;2023-04-03T04:02:29;12.85;;;12.15;;
1975;SDS011;988;48.016;7.800;2023-04-03T04:04:55;11.82;;;11.13;;
1975;SDS011;988;48.016;7.800;2023-04-03T04:07:21;12.90;;;12.20;;
1975;SDS011;988;48.016;7.800;2023-04-03T04:09:47;13.20;;;12.50;;
1975;SDS011;988;48.016;7.800;2023-04-03T04:12:12;14.20;;;13.37;;
1975;SDS011;988;48.016;7.800;2023-04-03T04:14:38;12.57;;;11.87;;
1975;SDS011;988;48.016;7.800;2023-04-03T04:17:04;12.53;;;11.93;;
1975;SDS011;988;48.016;7.800;2023-04-03T04:19:30;12.57;;;11.88;;
1975;SDS011;988;48.016;7.800;2023-04-03T04:21:55;13.27;;;12.53;;
1975;SDS011;988;48.016;7.800;2023-04-03T04:24:21;12.40;;;11.60;;
1975;SDS011;988;48.016;7.800;2023-04-03T04:26:47;13.32;;;12.52;;
1975;SDS011;988;48.016;7.800;2023-04-03T04:29:13;14.60;;;13.70;;
1975;SDS011;988;48.016;7.800;2023-04-03T04:31:39;13.63;;;12.73;;
1975;SDS011;988;48.016;7.800;2023-04-03T04:34:05;14.20;;;13.30;;
1975;SDS011;988;48.016;7.800;2023-04-03T04:36:30;13.07;;;12.30;;
1975;SDS011;988;48.016;7.800;2023-04-03T04:38:56;13.20;;;12.40;;
1975;SDS011;988;48.016;7.800;2023-04-03T04:41:23;13.15;;;12.25;;
1975;SDS011;988;48.016;7.800;2023-04-03T04:43:49;13.87;;;12.87;;
1975;SDS011;988;48.016;7.800;2023-04-03T04:46:15;14.20;;;13.38;;
1975;SDS011;988;48.016;7.800;2023-04-03T04:48:41;13.50;;;12.70;;
1975;SDS011;988;48.016;7.800;2023-04-03T04:51:07;15.30;;;14.40;;
1975;SDS011;988;48.016;7.800;2023-04-03T04:53:32;14.07;;;13.17;;
1975;SDS011;988;48.016;7.800;2023-04-03T04:55:58;14.97;;;13.97;;
1975;SDS011;988;48.016;7.800;2023-04-03T04:58:24;14.43;;;13.60;;
1975;SDS011;988;48.016;7.800;2023-04-03T05:00:57;14.25;;;13.35;;
1975;SDS011;988;48.016;7.800;2023-04-03T05:03:31;14.05;;;13.15;;
1975;SDS011;988;48.016;7.800;2023-04-03T05:05:57;15.50;;;14.48;;
1975;SDS011;988;48.016;7.800;2023-04-03T05:08:23;15.17;;;14.17;;
1975;SDS011;988;48.016;7.800;2023-04-03T05:10:49;13.40;;;12.70;;
1975;SDS011;988;48.016;7.800;2023-04-03T05:13:14;14.10;;;12.87;;
1975;SDS011;988;48.016;7.800;2023-04-03T05:15:40;14.67;;;13.87;;
1975;SDS011;988;48.016;7.800;2023-04-03T05:18:06;14.60;;;13.80;;
1975;SDS011;988;48.016;7.800;2023-04-03T05:20:32;14.48;;;13.57;;
1975;SDS011;988;48.016;7.800;2023-04-03T05:22:58;14.20;;;13.40;;
1975;SDS011;988;48.016;7.800;2023-04-03T05:25:23;14.93;;;14.03;;
1975;SDS011;988;48.016;7.800;2023-04-03T05:27:49;15.80;;;14.40;;
1975;SDS011;988;48.016;7.800;2023-04-03T05:30:15;15.70;;;14.60;;
1975;SDS011;988;48.016;7.800;2023-04-03T05:32:41;14.35;;;13.25;;
1975;SDS011;988;48.016;7.800;2023-04-03T05:35:07;15.10;;;13.87;;
1975;SDS011;988;48.016;7.800;2023-04-03T05:37:33;15.32;;;14.45;;
1975;SDS011;988;48.016;7.800;2023-04-03T05:39:59;14.90;;;13.98;;
1975;SDS011;988;48.016;7.800;2023-04-03T05:42:26;16.43;;;15.30;;
1975;SDS011;988;48.016;7.800;2023-04-03T05:44:52;14.90;;;14.10;;
1975;SDS011;988;48.016;7.800;2023-04-03T05:47:18;16.60;;;15.70;;
1975;SDS011;988;48.016;7.800;2023-04-03T05:49:43;16.42;;;15.40;;
1975;SDS011;988;48.016;7.800;2023-04-03T05:54:52;16.55;;;15.65;;
1975;SDS011;988;48.016;7.800;2023-04-03T05:57:18;16.73;;;15.63;;
1975;SDS011;988;48.016;7.800;2023-04-03T05:59:44;17.03;;;16.07;;
1975;SDS011;988;48.016;7.800;2023-04-03T06:02:12;15.60;;;14.70;;
1975;SDS011;988;48.016;7.800;2023-04-03T06:04:38;15.60;;;14.70;;
1975;SDS011;988;48.016;7.800;2023-04-03T06:07:04;16.10;;;15.20;;
1975;SDS011;988;48.016;7.800;2023-04-03T06:09:30;16.60;;;15.50;;
1975;SDS011;988;48.016;7.800;2023-04-03T06:11:56;16.37;;;15.37;;
1975;SDS011;988;48.016;7.800;2023-04-03T06:14:25;16.80;;;15.80;;
1975;SDS011;988;48.016;7.800;2023-04-03T06:16:52;17.77;;;16.73;;
1975;SDS011;988;48.016;7.800;2023-04-03T06:19:18;15.63;;;14.63;;
1975;SDS011;988;48.016;7.800;2023-04-03T06:21:43;16.63;;;15.73;;
1975;SDS011;988;48.016;7.800;2023-04-03T06:24:09;15.43;;;14.50;;
1975;SDS011;988;48.016;7.800;2023-04-03T06:26:37;17.10;;;15.93;;
1975;SDS011;988;48.016;7.800;2023-04-03T06:29:02;17.13;;;15.90;;
1975;SDS011;988;48.016;7.800;2023-04-03T06:31:29;19.00;;;17.60;;
1975;SDS011;988;48.016;7.800;2023-04-03T06:33:55;16.40;;;15.60;;
1975;SDS011;988;48.016;7.800;2023-04-03T06:36:21;17.92;;;16.60;;
1975;SDS011;988;48.016;7.800;2023-04-03T06:38:47;16.40;;;15.43;;
1975;SDS011;988;48.016;7.800;2023-04-03T06:41:13;16.65;;;15.75;;
1975;SDS011;988;48.016;7.800;2023-04-03T06:43:39;16.45;;;15.50;;
1975;SDS011;988;48.016;7.800;2023-04-03T06:46:05;16.60;;;15.60;;
1975;SDS011;988;48.016;7.800;2023-04-03T06:48:31;16.37;;;15.47;;
1975;SDS011;988;48.016;7.800;2023-04-03T06:50:57;17.10;;;16.20;;
1975;SDS011;988;48.016;7.800;2023-04-03T06:53:22;17.03;;;15.93;;
1975;SDS011;988;48.016;7.800;2023-04-03T06:55:48;16.97;;;16.00;;
1975;SDS011;988;48.016;7.800;2023-04-03T06:58:13;17.60;;;16.70;;
1975;SDS011;988;48.016;7.800;2023-04-03T07:00:40;17.52;;;16.52;;
1975;SDS011;988;48.016;7.800;2023-04-03T07:03:06;17.05;;;16.05;;
1975;SDS011;988;48.016;7.800;2023-04-03T07:05:32;15.55;;;14.75;;
1975;SDS011;988;48.016;7.800;2023-04-03T07:07:58;17.40;;;16.30;;
1975;SDS011;988;48.016;7.800;2023-04-03T07:10:23;17.43;;;16.43;;
1975;SDS011;988;48.016;7.800;2023-04-03T07:12:49;16.87;;;15.87;;
1975;SDS011;988;48.016;7.800;2023-04-03T07:15:14;16.60;;;15.70;;
1975;SDS011;988;48.016;7.800;2023-04-03T07:17:40;16.30;;;15.40;;
1975;SDS011;988;48.016;7.800;2023-04-03T07:20:06;15.87;;;15.07;;
1975;SDS011;988;48.016;7.800;2023-04-03T07:22:33;15.13;;;14.40;;
1975;SDS011;988;48.016;7.800;2023-04-03T07:24:58;15.73;;;14.83;;
1975;SDS011;988;48.016;7.800;2023-04-03T07:27:24;15.00;;;14.30;;
1975;SDS011;988;48.016;7.800;2023-04-03T07:29:50;14.77;;;14.07;;
1975;SDS011;988;48.016;7.800;2023-04-03T07:32:16;15.13;;;14.38;;
1975;SDS011;988;48.016;7.800;2023-04-03T07:34:42;14.73;;;14.10;;
1975;SDS011;988;48.016;7.800;2023-04-03T07:37:08;14.63;;;13.95;;
1975;SDS011;988;48.016;7.800;2023-04-03T07:39:34;15.98;;;15.23;;
1975;SDS011;988;48.016;7.800;2023-04-03T07:42:01;14.80;;;14.00;;
1975;SDS011;988;48.016;7.800;2023-04-03T07:44:28;16.30;;;15.50;;
1975;SDS011;988;48.016;7.800;2023-04-03T07:46:54;15.70;;;15.00;;
1975;SDS011;988;48.016;7.800;2023-04-03T07:49:22;16.45;;;15.75;;
1975;SDS011;988;48.016;7.800;2023-04-03T07:51:49;16.90;;;16.00;;
1975;SDS011;988;48.016;7.800;2023-04-03T07:54:15;16.58;;;15.77;;
1975;SDS011;988;48.016;7.800;2023-04-03T07:56:40;18.10;;;17.30;;
1975;SDS011;988;48.016;7.800;2023-04-03T07:59:07;17.88;;;16.98;;
1975;SDS011;988;48.016;7.800;2023-04-03T08:01:34;16.65;;;15.85;;
1975;SDS011;988;48.016;7.800;2023-04-03T08:03:59;17.30;;;16.50;;
1975;SDS011;988;48.016;7.800;2023-04-03T08:06:26;18.58;;;17.33;;
1975;SDS011;988;48.016;7.800;2023-04-03T08:08:51;17.70;;;16.80;;
1975;SDS011;988;48.016;7.800;2023-04-03T08:11:18;18.58;;;17.58;;
1975;SDS011;988;48.016;7.800;2023-04-03T08:13:45;17.40;;;16.50;;
1975;SDS011;988;48.016;7.800;2023-04-03T08:16:12;18.73;;;17.73;;
1975;SDS011;988;48.016;7.800;2023-04-03T08:18:41;17.42;;;16.55;;
1975;SDS011;988;48.016;7.800;2023-04-03T08:21:08;17.77;;;16.87;;
1975;SDS011;988;48.016;7.800;2023-04-03T08:23:35;16.92;;;16.02;;
1975;SDS011;988;48.016;7.800;2023-04-03T08:26:14;18.97;;;17.50;;
1975;SDS011;988;48.016;7.800;2023-04-03T08:28:41;18.20;;;17.25;;
1975;SDS011;988;48.016;7.800;2023-04-03T08:31:09;18.13;;;17.20;;
1975;SDS011;988;48.016;7.800;2023-04-03T08:33:36;17.90;;;16.90;;
1975;SDS011;988;48.016;7.800;2023-04-03T08:36:05;18.90;;;18.00;;
1975;SDS011;988;48.016;7.800;2023-04-03T08:38:32;17.95;;;17.05;;
1975;SDS011;988;48.016;7.800;2023-04-03T08:41:10;18.60;;;17.58;;
1975;SDS011;988;48.016;7.800;2023-04-03T08:44:10;18.60;;;17.40;;
1975;SDS011;988;48.016;7.800;2023-04-03T08:49:41;18.13;;;17.13;;
1975;SDS011;988;48.016;7.800;2023-04-03T08:52:15;18.98;;;18.00;;
1975;SDS011;988;48.016;7.800;2023-04-03T08:55:03;20.25;;;19.25;;
1975;SDS011;988;48.016;7.800;2023-04-03T08:57:33;20.73;;;19.67;;
1975;SDS011;988;48.016;7.800;2023-04-03T09:00:09;18.98;;;18.05;;
1975;SDS011;988;48.016;7.800;2023-04-03T09:05:11;20.17;;;19.13;;
1975;SDS011;988;48.016;7.800;2023-04-03T09:07:43;19.17;;;18.27;;
1975;SDS011;988;48.016;7.800;2023-04-03T09:10:19;19.50;;;18.50;;
1975;SDS011;988;48.016;7.800;2023-04-03T09:12:57;18.15;;;17.25;;
1975;SDS011;988;48.016;7.800;2023-04-03T09:15:28;19.15;;;18.10;;
1975;SDS011;988;48.016;7.800;2023-04-03T09:23:31;19.55;;;18.55;;
1975;SDS011;988;48.016;7.800;2023-04-03T09:26:07;19.20;;;18.20;;
1975;SDS011;988;48.016;7.800;2023-04-03T09:28:41;19.58;;;18.58;;
1975;SDS011;988;48.016;7.800;2023-04-03T09:31:20;18.08;;;17.17;;
1975;SDS011;988;48.016;7.800;2023-04-03T09:33:56;19.55;;;18.55;;
1975;SDS011;988;48.016;7.800;2023-04-03T09:36:43;20.55;;;19.35;;
1975;SDS011;988;48.016;7.800;2023-04-03T09:41:41;18.02;;;16.98;;
1975;SDS011;988;48.016;7.800;2023-04-03T09:44:20;18.90;;;18.00;;
1975;SDS011;988;48.016;7.800;2023-04-03T09:46:47;19.30;;;18.17;;
1975;SDS011;988;48.016;7.800;2023-04-03T09:49:13;17.63;;;16.73;;
1975;SDS011;988;48.016;7.800;2023-04-03T09:51:38;17.50;;;16.70;;
1975;SDS011;988;48.016;7.800;2023-04-03T09:57:14;18.20;;;17.40;;
1975;SDS011;988;48.016;7.800;2023-04-03T09:59:42;18.57;;;17.77;;
1975;SDS011;988;48.016;7.800;2023-04-03T10:02:32;18.37;;;17.47;;
1975;SDS011;988;48.016;7.800;2023-04-03T10:05:00;17.33;;;16.60;;
1975;SDS011;988;48.016;7.800;2023-04-03T10:07:28;18.50;;;17.60;;
1975;SDS011;988;48.016;7.800;2023-04-03T10:12:39;17.37;;;16.47;;
1975;SDS011;988;48.016;7.800;2023-04-03T10:15:12;17.70;;;16.80;;
1975;SDS011;988;48.016;7.800;2023-04-03T10:34:37;16.17;;;15.40;;
1975;SDS011;988;48.016;7.800;2023-04-03T10:37:27;16.58;;;15.77;;
1975;SDS011;988;48.016;7.800;2023-04-03T10:54:25;17.07;;;16.17;;
1975;SDS011;988;48.016;7.800;2023-04-03T10:57:03;17.60;;;16.70;;
1975;SDS011;988;48.016;7.800;2023-04-03T10:59:37;16.83;;;15.93;;
1975;SDS011;988;48.016;7.800;2023-04-03T11:04:44;16.70;;;15.80;;
1975;SDS011;988;48.016;7.800;2023-04-03T11:07:20;15.50;;;14.80;;
1975;SDS011;988;48.016;7.800;2023-04-03T11:09:55;16.70;;;15.63;;
1975;SDS011;988;48.016;7.800;2023-04-03T11:15:50;16.10;;;15.40;;
1975;SDS011;988;48.016;7.800;2023-04-03T11:18:20;16.60;;;15.80;;
1975;SDS011;988;48.016;7.800;2023-04-03T11:20:57;15.80;;;15.10;;
1975;SDS011;988;48.016;7.800;2023-04-03T11:23:30;16.83;;;16.00;;
1975;SDS011;988;48.016;7.800;2023-04-03T11:26:06;17.17;;;16.27;;
1975;SDS011;988;48.016;7.800;2023-04-03T11:28:37;17.63;;;16.83;;
1975;SDS011;988;48.016;7.800;2023-04-03T11:36:56;17.30;;;16.50;;
1975;SDS011;988;48.016;7.800;2023-04-03T11:39:28;19.17;;;17.97;;
1975;SDS011;988;48.016;7.800;2023-04-03T11:42:14;17.80;;;16.80;;
1975;SDS011;988;48.016;7.800;2023-04-03T11:44:46;17.23;;;16.33;;
1975;SDS011;988;48.016;7.800;2023-04-03T11:47:12;16.97;;;16.17;;
1975;SDS011;988;48.016;7.800;2023-04-03T11:50:31;16.93;;;16.10;;
1975;SDS011;988;48.016;7.800;2023-04-03T12:05:53;16.07;;;15.27;;
1975;SDS011;988;48.016;7.800;2023-04-03T12:16:19;18.20;;;17.30;;
1975;SDS011;988;48.016;7.800;2023-04-03T12:19:02;17.77;;;16.93;;
1975;SDS011;988;48.016;7.800;2023-04-03T12:32:17;16.20;;;15.40;;
1975;SDS011;988;48.016;7.800;2023-04-03T12:40:39;18.33;;;17.43;;
1975;SDS011;988;48.016;7.800;2023-04-03T12:43:25;16.87;;;16.07;;
1975;SDS011;988;48.016;7.800;2023-04-03T12:46:24;17.30;;;16.50;;
1975;SDS011;988;48.016;7.800;2023-04-03T12:48:55;17.05;;;16.20;;
1975;SDS011;988;48.016;7.800;2023-04-03T12:54:01;17.63;;;16.63;;
1975;SDS011;988;48.016;7.800;2023-04-03T12:56:31;16.90;;;16.10;;
1975;SDS011;988;48.016;7.800;2023-04-03T13:02:00;19.25;;;18.25;;
1975;SDS011;988;48.016;7.800;2023-04-03T13:04:27;18.35;;;17.45;;
1975;SDS011;988;48.016;7.800;2023-04-03T13:06:54;18.65;;;17.73;;
1975;SDS011;988;48.016;7.800;2023-04-03T13:09:25;18.40;;;17.40;;
1975;SDS011;988;48.016;7.800;2023-04-03T13:14:57;18.90;;;18.00;;
1975;SDS011;988;48.016;7.800;2023-04-03T13:17:25;17.02;;;16.13;;
1975;SDS011;988;48.016;7.800;2023-04-03T13:19:52;19.95;;;19.05;;
1975;SDS011;988;48.016;7.800;2023-04-03T13:25:09;21.65;;;20.55;;
1975;SDS011;988;48.016;7.800;2023-04-03T13:27:38;19.05;;;18.02;;
1975;SDS011;988;48.016;7.800;2023-04-03T13:30:17;18.33;;;17.23;;
1975;SDS011;988;48.016;7.800;2023-04-03T13:32:45;19.80;;;18.85;;
1975;SDS011;988;48.016;7.800;2023-04-03T13:35:25;18.60;;;17.70;;
1975;SDS011;988;48.016;7.800;2023-04-03T13:37:58;17.88;;;16.88;;
1975;SDS011;988;48.016;7.800;2023-04-03T13:40:26;19.95;;;18.95;;
1975;SDS011;988;48.016;7.800;2023-04-03T13:42:58;18.27;;;17.33;;
1975;SDS011;988;48.016;7.800;2023-04-03T13:45:27;18.65;;;17.60;;
1975;SDS011;988;48.016;7.800;2023-04-03T13:48:08;18.05;;;17.15;;
1975;SDS011;988;48.016;7.800;2023-04-03T13:50:51;18.63;;;17.63;;
1975;SDS011;988;48.016;7.800;2023-04-03T13:53:30;16.88;;;16.08;;
1975;SDS011;988;48.016;7.800;2023-04-03T13:58:26;18.40;;;17.40;;
1975;SDS011;988;48.016;7.800;2023-04-03T14:01:32;19.65;;;18.55;;
1975;SDS011;988;48.016;7.800;2023-04-03T14:03:55;19.88;;;18.88;;
1975;SDS011;988;48.016;7.800;2023-04-03T14:06:23;18.60;;;17.70;;
1975;SDS011;988;48.016;7.800;2023-04-03T14:08:49;19.40;;;18.10;;
1975;SDS011;988;48.016;7.800;2023-04-03T14:11:20;18.48;;;17.67;;
1975;SDS011;988;48.016;7.800;2023-04-03T14:13:53;17.52;;;16.65;;
1975;SDS011;988;48.016;7.800;2023-04-03T14:16:23;17.83;;;16.90;;
1975;SDS011;988;48.016;7.800;2023-04-03T14:18:54;18.23;;;17.30;;
1975;SDS011;988;48.016;7.800;2023-04-03T14:21:20;19.47;;;18.47;;
1975;SDS011;988;48.016;7.800;2023-04-03T14:23:46;18.47;;;17.27;;
1975;SDS011;988;48.016;7.800;2023-04-03T14:26:13;18.57;;;17.47;;
1975;SDS011;988;48.016;7.800;2023-04-03T14:28:42;18.65;;;17.75;;
1975;SDS011;988;48.016;7.800;2023-04-03T14:31:09;18.30;;;17.35;;
1975;SDS011;988;48.016;7.800;2023-04-03T14:33:36;21.70;;;20.60;;
1975;SDS011;988;48.016;7.800;2023-04-03T14:36:05;19.52;;;18.33;;
1975;SDS011;988;48.016;7.800;2023-04-03T14:38:40;18.63;;;17.52;;
1975;SDS011;988;48.016;7.800;2023-04-03T14:41:06;18.57;;;17.67;;
1975;SDS011;988;48.016;7.800;2023-04-03T14:43:32;18.00;;;17.10;;
1975;SDS011;988;48.016;7.800;2023-04-03T14:45:58;19.50;;;18.50;;
1975;SDS011;988;48.016;7.800;2023-04-03T14:48:24;17.47;;;16.57;;
1975;SDS011;988;48.016;7.800;2023-04-03T14:50:52;16.98;;;16.17;;
1975;SDS011;988;48.016;7.800;2023-04-03T14:53:19;18.48;;;17.48;;
1975;SDS011;988;48.016;7.800;2023-04-03T14:55:47;19.17;;;18.17;;
1975;SDS011;988;48.016;7.800;2023-04-03T14:58:14;19.27;;;18.25;;
1975;SDS011;988;48.016;7.800;2023-04-03T15:00:42;18.30;;;17.02;;
1975;SDS011;988;48.016;7.800;2023-04-03T15:03:16;19.15;;;18.20;;
1975;SDS011;988;48.016;7.800;2023-04-03T15:05:44;17.95;;;17.10;;
1975;SDS011;988;48.016;7.800;2023-04-03T15:08:17;17.52;;;16.63;;
1975;SDS011;988;48.016;7.800;2023-04-03T15:10:47;16.20;;;15.40;;
1975;SDS011;988;48.016;7.800;2023-04-03T15:13:13;17.80;;;16.90;;
1975;SDS011;988;48.016;7.800;2023-04-03T15:15:39;18.17;;;17.23;;
1975;SDS011;988;48.016;7.800;2023-04-03T15:18:05;18.98;;;17.98;;
1975;SDS011;988;48.016;7.800;2023-04-03T15:20:32;18.98;;;17.92;;
1975;SDS011;988;48.016;7.800;2023-04-03T15:22:58;17.67;;;16.88;;
1975;SDS011;988;48.016;7.800;2023-04-03T15:25:29;16.98;;;16.17;;
1975;SDS011;988;48.016;7.800;2023-04-03T15:27:56;15.65;;;14.88;;
1975;SDS011;988;48.016;7.800;2023-04-03T15:30:22;17.65;;;16.80;;
1975;SDS011;988;48.016;7.800;2023-04-03T15:32:48;16.73;;;15.57;;
1975;SDS011;988;48.016;7.800;2023-04-03T15:35:14;18.27;;;17.38;;
1975;SDS011;988;48.016;7.800;2023-04-03T15:37:40;17.30;;;16.50;;
1975;SDS011;988;48.016;7.800;2023-04-03T15:40:07;17.10;;;16.20;;
1975;SDS011;988;48.016;7.800;2023-04-03T15:42:34;17.95;;;16.75;;
1975;SDS011;988;48.016;7.800;2023-04-03T15:44:59;17.43;;;16.63;;
1975;SDS011;988;48.016;7.800;2023-04-03T15:47:25;17.07;;;16.13;;
1975;SDS011;988;48.016;7.800;2023-04-03T15:49:52;19.35;;;18.27;;
1975;SDS011;988;48.016;7.800;2023-04-03T15:52:19;18.08;;;17.00;;
1975;SDS011;988;48.016;7.800;2023-04-03T15:54:45;16.40;;;15.67;;
1975;SDS011;988;48.016;7.800;2023-04-03T15:57:10;17.10;;;16.30;;
1975;SDS011;988;48.016;7.800;2023-04-03T15:59:36;16.60;;;15.70;;
1975;SDS011;988;48.016;7.800;2023-04-03T16:02:01;18.60;;;17.70;;
1975;SDS011;988;48.016;7.800;2023-04-03T16:04:30;20.10;;;18.80;;
1975;SDS011;988;48.016;7.800;2023-04-03T16:06:56;18.67;;;17.57;;
1975;SDS011;988;48.016;7.800;2023-04-03T16:09:21;15.77;;;15.07;;
1975;SDS011;988;48.016;7.800;2023-04-03T16:11:47;16.70;;;15.90;;
1975;SDS011;988;48.016;7.800;2023-04-03T16:14:13;17.30;;;16.30;;
1975;SDS011;988;48.016;7.800;2023-04-03T16:16:38;16.80;;;15.80;;
1975;SDS011;988;48.016;7.800;2023-04-03T16:19:04;16.55;;;15.85;;
1975;SDS011;988;48.016;7.800;2023-04-03T16:21:31;17.00;;;15.93;;
1975;SDS011;988;48.016;7.800;2023-04-03T16:23:57;17.20;;;16.30;;
1975;SDS011;988;48.016;7.800;2023-04-03T16:26:23;15.35;;;14.65;;
1975;SDS011;988;48.016;7.800;2023-04-03T16:28:50;15.07;;;14.38;;
1975;SDS011;988;48.016;7.800;2023-04-03T16:31:16;17.60;;;16.70;;
1975;SDS011;988;48.016;7.800;2023-04-03T16:33:41;16.23;;;15.43;;
1975;SDS011;988;48.016;7.800;2023-04-03T16:36:07;15.93;;;15.13;;
1975;SDS011;988;48.016;7.800;2023-04-03T16:38:33;16.67;;;15.70;;
1975;SDS011;988;48.016;7.800;2023-04-03T16:40:58;16.20;;;15.40;;
1975;SDS011;988;48.016;7.800;2023-04-03T16:43:29;16.48;;;15.65;;
1975;SDS011;988;48.016;7.800;2023-04-03T16:45:55;14.73;;;14.02;;
1975;SDS011;988;48.016;7.800;2023-04-03T16:48:21;15.63;;;14.93;;
1975;SDS011;988;48.016;7.800;2023-04-03T16:50:47;15.90;;;14.90;;
1975;SDS011;988;48.016;7.800;2023-04-03T16:53:15;16.00;;;15.15;;
1975;SDS011;988;48.016;7.800;2023-04-03T16:55:41;14.90;;;14.20;;
1975;SDS011;988;48.016;7.800;2023-04-03T16:58:06;17.03;;;16.23;;
1975;SDS011;988;48.016;7.800;2023-04-03T17:00:32;15.60;;;14.70;;
1975;SDS011;988;48.016;7.800;2023-04-03T17:02:59;16.38;;;15.57;;
1975;SDS011;988;48.016;7.800;2023-04-03T17:05:25;16.40;;;15.60;;
1975;SDS011;988;48.016;7.800;2023-04-03T17:07:51;16.95;;;15.95;;
1975;SDS011;988;48.016;7.800;2023-04-03T17:10:16;18.53;;;17.20;;
1975;SDS011;988;48.016;7.800;2023-04-03T17:12:42;16.43;;;15.53;;
1975;SDS011;988;48.016;7.800;2023-04-03T17:15:08;16.90;;;15.90;;